Eagle Point Bay, Illinois
Current Conditions -  °F | °C
As of 1:46 PM on Friday 24 Oct 2014 (Local Time) from KMWA Reporting Station
Broken Clouds Broken Clouds  
Wind Chill: 68°   Ceiling: 2700
Heat Index: 68°   Visibility: 20mi
Dew Point: 55°   Wind: 8mph
Humidity: 64%   Direction: 270°W
Pressure: 30.09"   Gusts: NA
Location:  37.565°N, 88.982°W
Report Text: KMWA 241846Z 27007KT 20SM BKN027 BKN035 20/13 A3009
Loading
Personal Weather Stations






























Interactive Weather Map
Tropical Storm Tracking
New forecast layout! Learn more

10-Day Weather Forecast

Advertisements
Track Severe Weather on mobile